sensor_id;sensor_type;location;lat;lon;timestamp;P1;durP1;ratioP1;P2;durP2;ratioP2
56173;SDS011;42058;52.308;20.924;2022-11-20T00:00:55;56.40;;;23.52;;
56173;SDS011;42058;52.308;20.924;2022-11-20T00:03:21;52.80;;;21.45;;
56173;SDS011;42058;52.308;20.924;2022-11-20T00:05:48;52.55;;;21.97;;
56173;SDS011;42058;52.308;20.924;2022-11-20T00:08:14;56.73;;;23.25;;
56173;SDS011;42058;52.308;20.924;2022-11-20T00:10:40;55.80;;;23.15;;
56173;SDS011;42058;52.308;20.924;2022-11-20T00:13:06;49.23;;;21.70;;
56173;SDS011;42058;52.308;20.924;2022-11-20T00:15:33;58.13;;;23.18;;
56173;SDS011;42058;52.308;20.924;2022-11-20T00:17:59;55.80;;;23.50;;
56173;SDS011;42058;52.308;20.924;2022-11-20T00:20:25;50.95;;;22.87;;
56173;SDS011;42058;52.308;20.924;2022-11-20T00:22:52;53.17;;;22.67;;
56173;SDS011;42058;52.308;20.924;2022-11-20T00:25:18;55.78;;;25.45;;
56173;SDS011;42058;52.308;20.924;2022-11-20T00:27:44;54.50;;;23.02;;
56173;SDS011;42058;52.308;20.924;2022-11-20T00:30:10;56.63;;;23.60;;
56173;SDS011;42058;52.308;20.924;2022-11-20T00:32:37;51.20;;;24.27;;
56173;SDS011;42058;52.308;20.924;2022-11-20T00:35:03;51.42;;;22.37;;
56173;SDS011;42058;52.308;20.924;2022-11-20T00:37:30;58.78;;;23.62;;
56173;SDS011;42058;52.308;20.924;2022-11-20T00:39:56;64.12;;;23.98;;
56173;SDS011;42058;52.308;20.924;2022-11-20T00:42:22;60.60;;;23.25;;
56173;SDS011;42058;52.308;20.924;2022-11-20T00:44:48;63.40;;;23.98;;
56173;SDS011;42058;52.308;20.924;2022-11-20T00:47:15;62.20;;;23.52;;
56173;SDS011;42058;52.308;20.924;2022-11-20T00:49:41;58.83;;;23.83;;
56173;SDS011;42058;52.308;20.924;2022-11-20T00:52:07;53.52;;;21.30;;
56173;SDS011;42058;52.308;20.924;2022-11-20T00:54:33;56.33;;;25.23;;
56173;SDS011;42058;52.308;20.924;2022-11-20T00:56:59;61.20;;;23.73;;
56173;SDS011;42058;52.308;20.924;2022-11-20T00:59:25;57.40;;;24.50;;
56173;SDS011;42058;52.308;20.924;2022-11-20T01:01:51;58.65;;;23.65;;
56173;SDS011;42058;52.308;20.924;2022-11-20T01:04:17;66.72;;;25.25;;
56173;SDS011;42058;52.308;20.924;2022-11-20T01:06:43;55.25;;;23.80;;
56173;SDS011;42058;52.308;20.924;2022-11-20T01:09:11;55.08;;;22.48;;
56173;SDS011;42058;52.308;20.924;2022-11-20T01:11:40;50.20;;;22.10;;
56173;SDS011;42058;52.308;20.924;2022-11-20T01:14:10;61.88;;;23.83;;
56173;SDS011;42058;52.308;20.924;2022-11-20T01:16:41;51.28;;;22.52;;
56173;SDS011;42058;52.308;20.924;2022-11-20T01:19:12;57.27;;;23.73;;
56173;SDS011;42058;52.308;20.924;2022-11-20T01:21:41;50.65;;;22.82;;
56173;SDS011;42058;52.308;20.924;2022-11-20T01:24:10;58.58;;;22.17;;
56173;SDS011;42058;52.308;20.924;2022-11-20T01:26:40;51.92;;;21.57;;
56173;SDS011;42058;52.308;20.924;2022-11-20T01:29:19;56.00;;;23.27;;
56173;SDS011;42058;52.308;20.924;2022-11-20T01:31:47;56.05;;;22.87;;
56173;SDS011;42058;52.308;20.924;2022-11-20T01:34:15;52.60;;;22.07;;
56173;SDS011;42058;52.308;20.924;2022-11-20T01:36:44;52.62;;;21.87;;
56173;SDS011;42058;52.308;20.924;2022-11-20T01:39:14;53.52;;;22.27;;
56173;SDS011;42058;52.308;20.924;2022-11-20T01:41:46;51.88;;;21.40;;
56173;SDS011;42058;52.308;20.924;2022-11-20T01:47:25;49.58;;;21.62;;
56173;SDS011;42058;52.308;20.924;2022-11-20T01:50:11;55.25;;;21.90;;
56173;SDS011;42058;52.308;20.924;2022-11-20T01:52:49;61.42;;;22.58;;
56173;SDS011;42058;52.308;20.924;2022-11-20T01:55:29;61.42;;;23.85;;
56173;SDS011;42058;52.308;20.924;2022-11-20T01:57:58;64.75;;;23.38;;
56173;SDS011;42058;52.308;20.924;2022-11-20T02:00:25;56.28;;;22.35;;
56173;SDS011;42058;52.308;20.924;2022-11-20T02:02:52;62.90;;;23.90;;
56173;SDS011;42058;52.308;20.924;2022-11-20T02:05:24;48.50;;;20.75;;
56173;SDS011;42058;52.308;20.924;2022-11-20T02:08:05;50.03;;;21.93;;
56173;SDS011;42058;52.308;20.924;2022-11-20T02:10:32;52.05;;;22.07;;
56173;SDS011;42058;52.308;20.924;2022-11-20T02:12:59;54.88;;;22.30;;
56173;SDS011;42058;52.308;20.924;2022-11-20T02:15:44;50.88;;;21.77;;
56173;SDS011;42058;52.308;20.924;2022-11-20T02:18:11;53.38;;;21.82;;
56173;SDS011;42058;52.308;20.924;2022-11-20T02:20:41;53.25;;;21.90;;
56173;SDS011;42058;52.308;20.924;2022-11-20T02:23:25;48.90;;;21.07;;
56173;SDS011;42058;52.308;20.924;2022-11-20T02:25:59;46.63;;;20.75;;
56173;SDS011;42058;52.308;20.924;2022-11-20T02:28:29;55.03;;;22.58;;
56173;SDS011;42058;52.308;20.924;2022-11-20T02:30:55;45.28;;;20.17;;
56173;SDS011;42058;52.308;20.924;2022-11-20T02:33:21;51.37;;;21.05;;
56173;SDS011;42058;52.308;20.924;2022-11-20T02:35:47;46.00;;;21.25;;
56173;SDS011;42058;52.308;20.924;2022-11-20T02:38:14;50.50;;;21.35;;
56173;SDS011;42058;52.308;20.924;2022-11-20T02:40:40;56.70;;;21.65;;
56173;SDS011;42058;52.308;20.924;2022-11-20T02:43:07;55.58;;;22.15;;
56173;SDS011;42058;52.308;20.924;2022-11-20T02:45:34;50.60;;;21.75;;
56173;SDS011;42058;52.308;20.924;2022-11-20T02:48:01;54.53;;;22.75;;
56173;SDS011;42058;52.308;20.924;2022-11-20T02:50:29;51.45;;;20.10;;
56173;SDS011;42058;52.308;20.924;2022-11-20T02:52:56;51.58;;;22.22;;
56173;SDS011;42058;52.308;20.924;2022-11-20T02:55:22;49.65;;;21.57;;
56173;SDS011;42058;52.308;20.924;2022-11-20T02:57:48;56.15;;;22.90;;
56173;SDS011;42058;52.308;20.924;2022-11-20T03:00:14;58.02;;;22.67;;
56173;SDS011;42058;52.308;20.924;2022-11-20T03:02:40;52.25;;;21.52;;
56173;SDS011;42058;52.308;20.924;2022-11-20T03:05:06;53.50;;;21.93;;
56173;SDS011;42058;52.308;20.924;2022-11-20T03:07:33;52.43;;;23.38;;
56173;SDS011;42058;52.308;20.924;2022-11-20T03:09:59;58.38;;;22.17;;
56173;SDS011;42058;52.308;20.924;2022-11-20T03:12:25;50.88;;;21.87;;
56173;SDS011;42058;52.308;20.924;2022-11-20T03:14:51;50.88;;;21.82;;
56173;SDS011;42058;52.308;20.924;2022-11-20T03:17:17;53.50;;;22.15;;
56173;SDS011;42058;52.308;20.924;2022-11-20T03:19:44;55.33;;;23.27;;
56173;SDS011;42058;52.308;20.924;2022-11-20T03:22:10;56.45;;;23.38;;
56173;SDS011;42058;52.308;20.924;2022-11-20T03:24:36;50.10;;;21.95;;
56173;SDS011;42058;52.308;20.924;2022-11-20T03:27:02;46.95;;;21.80;;
56173;SDS011;42058;52.308;20.924;2022-11-20T03:29:28;51.00;;;20.82;;
56173;SDS011;42058;52.308;20.924;2022-11-20T03:31:54;53.20;;;21.52;;
56173;SDS011;42058;52.308;20.924;2022-11-20T03:34:20;47.73;;;21.15;;
56173;SDS011;42058;52.308;20.924;2022-11-20T03:36:46;53.38;;;21.95;;
56173;SDS011;42058;52.308;20.924;2022-11-20T03:39:12;54.05;;;21.37;;
56173;SDS011;42058;52.308;20.924;2022-11-20T03:41:39;49.85;;;21.35;;
56173;SDS011;42058;52.308;20.924;2022-11-20T03:44:08;57.98;;;22.25;;
56173;SDS011;42058;52.308;20.924;2022-11-20T03:46:36;46.85;;;20.95;;
56173;SDS011;42058;52.308;20.924;2022-11-20T03:49:03;50.78;;;21.65;;
56173;SDS011;42058;52.308;20.924;2022-11-20T03:51:30;50.33;;;20.55;;
56173;SDS011;42058;52.308;20.924;2022-11-20T03:53:59;53.30;;;20.68;;
56173;SDS011;42058;52.308;20.924;2022-11-20T03:56:32;49.65;;;20.82;;
56173;SDS011;42058;52.308;20.924;2022-11-20T03:59:01;51.75;;;21.65;;
56173;SDS011;42058;52.308;20.924;2022-11-20T04:01:32;50.70;;;22.02;;
56173;SDS011;42058;52.308;20.924;2022-11-20T04:04:02;51.37;;;21.07;;
56173;SDS011;42058;52.308;20.924;2022-11-20T04:06:30;51.37;;;22.75;;
56173;SDS011;42058;52.308;20.924;2022-11-20T04:09:02;54.45;;;21.80;;
56173;SDS011;42058;52.308;20.924;2022-11-20T04:11:30;51.95;;;21.57;;
56173;SDS011;42058;52.308;20.924;2022-11-20T04:14:01;45.10;;;20.27;;
56173;SDS011;42058;52.308;20.924;2022-11-20T04:16:31;54.95;;;21.68;;
56173;SDS011;42058;52.308;20.924;2022-11-20T04:19:00;53.92;;;22.40;;
56173;SDS011;42058;52.308;20.924;2022-11-20T04:21:30;47.00;;;22.05;;
56173;SDS011;42058;52.308;20.924;2022-11-20T04:23:56;55.83;;;21.25;;
56173;SDS011;42058;52.308;20.924;2022-11-20T04:26:23;51.05;;;22.20;;
56173;SDS011;42058;52.308;20.924;2022-11-20T04:28:52;53.58;;;22.73;;
56173;SDS011;42058;52.308;20.924;2022-11-20T04:31:23;60.43;;;23.77;;
56173;SDS011;42058;52.308;20.924;2022-11-20T04:33:51;50.95;;;22.65;;
56173;SDS011;42058;52.308;20.924;2022-11-20T04:36:19;57.58;;;22.42;;
56173;SDS011;42058;52.308;20.924;2022-11-20T04:38:54;56.48;;;22.35;;
56173;SDS011;42058;52.308;20.924;2022-11-20T04:41:28;57.53;;;24.43;;
56173;SDS011;42058;52.308;20.924;2022-11-20T04:43:57;58.95;;;24.32;;
56173;SDS011;42058;52.308;20.924;2022-11-20T04:46:29;54.25;;;22.27;;
56173;SDS011;42058;52.308;20.924;2022-11-20T04:48:58;58.60;;;23.87;;
56173;SDS011;42058;52.308;20.924;2022-11-20T04:51:25;55.28;;;22.70;;
56173;SDS011;42058;52.308;20.924;2022-11-20T04:53:52;57.65;;;23.12;;
56173;SDS011;42058;52.308;20.924;2022-11-20T04:56:19;60.40;;;23.35;;
56173;SDS011;42058;52.308;20.924;2022-11-20T04:58:45;51.40;;;22.73;;
56173;SDS011;42058;52.308;20.924;2022-11-20T05:01:12;58.95;;;24.07;;
56173;SDS011;42058;52.308;20.924;2022-11-20T05:03:42;65.37;;;25.25;;
56173;SDS011;42058;52.308;20.924;2022-11-20T05:06:10;57.27;;;23.05;;
56173;SDS011;42058;52.308;20.924;2022-11-20T05:08:39;63.33;;;24.47;;
56173;SDS011;42058;52.308;20.924;2022-11-20T05:11:07;56.80;;;23.05;;
56173;SDS011;42058;52.308;20.924;2022-11-20T05:13:37;54.25;;;23.85;;
56173;SDS011;42058;52.308;20.924;2022-11-20T05:16:09;56.83;;;23.07;;
56173;SDS011;42058;52.308;20.924;2022-11-20T05:18:35;63.75;;;24.50;;
56173;SDS011;42058;52.308;20.924;2022-11-20T05:21:02;58.00;;;22.70;;
56173;SDS011;42058;52.308;20.924;2022-11-20T05:23:30;50.33;;;21.80;;
56173;SDS011;42058;52.308;20.924;2022-11-20T05:25:58;58.90;;;24.00;;
56173;SDS011;42058;52.308;20.924;2022-11-20T05:28:25;52.65;;;23.12;;
56173;SDS011;42058;52.308;20.924;2022-11-20T05:30:54;55.60;;;22.75;;
56173;SDS011;42058;52.308;20.924;2022-11-20T05:33:20;54.35;;;21.95;;
56173;SDS011;42058;52.308;20.924;2022-11-20T05:35:47;57.83;;;22.85;;
56173;SDS011;42058;52.308;20.924;2022-11-20T05:38:14;54.53;;;22.27;;
56173;SDS011;42058;52.308;20.924;2022-11-20T05:40:40;52.27;;;22.07;;
56173;SDS011;42058;52.308;20.924;2022-11-20T05:43:06;60.10;;;23.18;;
56173;SDS011;42058;52.308;20.924;2022-11-20T05:45:32;61.05;;;23.98;;
56173;SDS011;42058;52.308;20.924;2022-11-20T05:47:59;54.55;;;22.02;;
56173;SDS011;42058;52.308;20.924;2022-11-20T05:50:26;57.17;;;22.07;;
56173;SDS011;42058;52.308;20.924;2022-11-20T05:52:53;52.50;;;22.45;;
56173;SDS011;42058;52.308;20.924;2022-11-20T05:55:19;59.20;;;22.48;;
56173;SDS011;42058;52.308;20.924;2022-11-20T05:57:45;53.17;;;23.12;;
56173;SDS011;42058;52.308;20.924;2022-11-20T06:00:12;56.90;;;22.42;;
56173;SDS011;42058;52.308;20.924;2022-11-20T06:02:39;56.23;;;21.93;;
56173;SDS011;42058;52.308;20.924;2022-11-20T06:05:05;49.18;;;20.88;;
56173;SDS011;42058;52.308;20.924;2022-11-20T06:07:32;52.62;;;21.17;;
56173;SDS011;42058;52.308;20.924;2022-11-20T06:09:58;52.95;;;21.87;;
56173;SDS011;42058;52.308;20.924;2022-11-20T06:12:24;53.78;;;21.40;;
56173;SDS011;42058;52.308;20.924;2022-11-20T06:14:50;49.83;;;21.33;;
56173;SDS011;42058;52.308;20.924;2022-11-20T06:17:16;52.08;;;20.43;;
56173;SDS011;42058;52.308;20.924;2022-11-20T06:19:42;53.02;;;21.55;;
56173;SDS011;42058;52.308;20.924;2022-11-20T06:22:08;47.50;;;21.57;;
56173;SDS011;42058;52.308;20.924;2022-11-20T06:24:34;53.78;;;21.57;;
56173;SDS011;42058;52.308;20.924;2022-11-20T06:27:00;51.68;;;22.15;;
56173;SDS011;42058;52.308;20.924;2022-11-20T06:29:26;56.18;;;22.30;;
56173;SDS011;42058;52.308;20.924;2022-11-20T06:31:53;58.58;;;22.48;;
56173;SDS011;42058;52.308;20.924;2022-11-20T06:34:19;54.08;;;22.93;;
56173;SDS011;42058;52.308;20.924;2022-11-20T06:36:45;55.10;;;23.05;;
56173;SDS011;42058;52.308;20.924;2022-11-20T06:39:11;52.38;;;21.70;;
56173;SDS011;42058;52.308;20.924;2022-11-20T06:41:37;53.48;;;21.55;;
56173;SDS011;42058;52.308;20.924;2022-11-20T06:44:04;54.75;;;21.85;;
56173;SDS011;42058;52.308;20.924;2022-11-20T06:46:31;48.45;;;22.07;;
56173;SDS011;42058;52.308;20.924;2022-11-20T06:48:57;58.92;;;22.20;;
56173;SDS011;42058;52.308;20.924;2022-11-20T06:51:23;49.13;;;21.48;;
56173;SDS011;42058;52.308;20.924;2022-11-20T06:53:50;58.58;;;22.58;;
56173;SDS011;42058;52.308;20.924;2022-11-20T06:56:16;51.53;;;22.60;;
56173;SDS011;42058;52.308;20.924;2022-11-20T06:58:42;52.03;;;21.97;;
56173;SDS011;42058;52.308;20.924;2022-11-20T07:01:12;55.08;;;22.98;;
56173;SDS011;42058;52.308;20.924;2022-11-20T07:03:39;56.37;;;22.70;;
56173;SDS011;42058;52.308;20.924;2022-11-20T07:06:06;49.55;;;21.90;;
56173;SDS011;42058;52.308;20.924;2022-11-20T07:08:34;58.30;;;22.77;;
56173;SDS011;42058;52.308;20.924;2022-11-20T07:11:01;50.05;;;21.33;;
56173;SDS011;42058;52.308;20.924;2022-11-20T07:13:30;58.83;;;21.50;;
56173;SDS011;42058;52.308;20.924;2022-11-20T07:16:01;54.18;;;21.25;;
56173;SDS011;42058;52.308;20.924;2022-11-20T07:18:31;53.78;;;22.27;;
56173;SDS011;42058;52.308;20.924;2022-11-20T07:21:01;55.80;;;22.55;;
56173;SDS011;42058;52.308;20.924;2022-11-20T07:23:33;50.75;;;21.40;;
56173;SDS011;42058;52.308;20.924;2022-11-20T07:26:02;55.17;;;22.75;;
56173;SDS011;42058;52.308;20.924;2022-11-20T07:28:30;59.70;;;21.65;;
56173;SDS011;42058;52.308;20.924;2022-11-20T07:30:57;51.70;;;20.72;;
56173;SDS011;42058;52.308;20.924;2022-11-20T07:33:23;54.90;;;23.25;;
56173;SDS011;42058;52.308;20.924;2022-11-20T07:35:49;56.25;;;23.05;;
56173;SDS011;42058;52.308;20.924;2022-11-20T07:38:15;54.67;;;22.40;;
56173;SDS011;42058;52.308;20.924;2022-11-20T07:40:41;59.98;;;23.38;;
56173;SDS011;42058;52.308;20.924;2022-11-20T07:43:07;60.30;;;23.12;;
56173;SDS011;42058;52.308;20.924;2022-11-20T07:45:33;56.08;;;23.38;;
56173;SDS011;42058;52.308;20.924;2022-11-20T07:47:59;61.48;;;23.32;;
56173;SDS011;42058;52.308;20.924;2022-11-20T07:50:25;54.70;;;22.73;;
56173;SDS011;42058;52.308;20.924;2022-11-20T07:52:51;60.23;;;24.60;;
56173;SDS011;42058;52.308;20.924;2022-11-20T07:55:18;58.02;;;23.98;;
56173;SDS011;42058;52.308;20.924;2022-11-20T07:57:44;61.98;;;24.47;;
56173;SDS011;42058;52.308;20.924;2022-11-20T08:00:10;58.87;;;24.37;;
56173;SDS011;42058;52.308;20.924;2022-11-20T08:02:38;57.50;;;23.22;;
56173;SDS011;42058;52.308;20.924;2022-11-20T08:05:05;62.95;;;24.75;;
56173;SDS011;42058;52.308;20.924;2022-11-20T08:07:36;58.40;;;23.38;;
56173;SDS011;42058;52.308;20.924;2022-11-20T08:10:07;62.35;;;24.95;;
56173;SDS011;42058;52.308;20.924;2022-11-20T08:12:42;65.55;;;25.20;;
56173;SDS011;42058;52.308;20.924;2022-11-20T08:15:33;57.17;;;22.95;;
56173;SDS011;42058;52.308;20.924;2022-11-20T08:18:05;59.10;;;23.55;;
56173;SDS011;42058;52.308;20.924;2022-11-20T08:20:37;58.83;;;25.12;;
56173;SDS011;42058;52.308;20.924;2022-11-20T08:23:04;70.25;;;25.97;;
56173;SDS011;42058;52.308;20.924;2022-11-20T08:25:34;62.33;;;24.65;;
56173;SDS011;42058;52.308;20.924;2022-11-20T08:28:07;62.90;;;25.65;;
56173;SDS011;42058;52.308;20.924;2022-11-20T08:30:32;58.73;;;25.05;;
56173;SDS011;42058;52.308;20.924;2022-11-20T08:33:06;56.15;;;23.67;;
56173;SDS011;42058;52.308;20.924;2022-11-20T08:35:35;59.85;;;25.55;;
56173;SDS011;42058;52.308;20.924;2022-11-20T08:38:03;60.85;;;24.85;;
56173;SDS011;42058;52.308;20.924;2022-11-20T08:40:31;61.40;;;24.18;;
56173;SDS011;42058;52.308;20.924;2022-11-20T08:42:58;57.23;;;24.82;;
56173;SDS011;42058;52.308;20.924;2022-11-20T08:45:24;68.22;;;26.97;;
56173;SDS011;42058;52.308;20.924;2022-11-20T08:47:50;64.17;;;25.48;;
56173;SDS011;42058;52.308;20.924;2022-11-20T08:50:16;61.98;;;26.00;;
56173;SDS011;42058;52.308;20.924;2022-11-20T08:52:43;56.68;;;23.73;;
56173;SDS011;42058;52.308;20.924;2022-11-20T08:55:09;63.58;;;25.00;;
56173;SDS011;42058;52.308;20.924;2022-11-20T08:57:36;65.35;;;27.65;;
56173;SDS011;42058;52.308;20.924;2022-11-20T09:00:04;58.23;;;25.15;;
56173;SDS011;42058;52.308;20.924;2022-11-20T09:02:32;66.28;;;26.60;;
56173;SDS011;42058;52.308;20.924;2022-11-20T09:04:58;65.57;;;27.00;;
56173;SDS011;42058;52.308;20.924;2022-11-20T09:07:24;62.38;;;25.92;;
56173;SDS011;42058;52.308;20.924;2022-11-20T09:09:50;67.90;;;26.50;;
56173;SDS011;42058;52.308;20.924;2022-11-20T09:12:16;63.05;;;25.90;;
56173;SDS011;42058;52.308;20.924;2022-11-20T09:14:42;67.85;;;26.05;;
56173;SDS011;42058;52.308;20.924;2022-11-20T09:17:09;62.65;;;25.82;;
56173;SDS011;42058;52.308;20.924;2022-11-20T09:19:38;60.78;;;25.20;;
56173;SDS011;42058;52.308;20.924;2022-11-20T09:22:04;62.90;;;24.98;;
56173;SDS011;42058;52.308;20.924;2022-11-20T09:24:30;63.45;;;26.60;;
56173;SDS011;42058;52.308;20.924;2022-11-20T09:26:56;63.50;;;25.52;;
56173;SDS011;42058;52.308;20.924;2022-11-20T09:29:22;56.13;;;22.77;;
56173;SDS011;42058;52.308;20.924;2022-11-20T09:31:48;60.70;;;25.80;;
56173;SDS011;42058;52.308;20.924;2022-11-20T09:34:14;61.30;;;26.30;;
56173;SDS011;42058;52.308;20.924;2022-11-20T09:36:41;69.35;;;27.65;;
56173;SDS011;42058;52.308;20.924;2022-11-20T09:39:07;59.67;;;25.97;;
56173;SDS011;42058;52.308;20.924;2022-11-20T09:41:43;67.97;;;27.75;;
56173;SDS011;42058;52.308;20.924;2022-11-20T09:52:59;55.35;;;25.65;;
56173;SDS011;42058;52.308;20.924;2022-11-20T09:55:42;63.98;;;24.98;;
56173;SDS011;42058;52.308;20.924;2022-11-20T09:58:14;67.55;;;27.45;;
56173;SDS011;42058;52.308;20.924;2022-11-20T10:00:44;67.67;;;35.75;;
56173;SDS011;42058;52.308;20.924;2022-11-20T10:03:18;65.55;;;29.20;;
56173;SDS011;42058;52.308;20.924;2022-11-20T10:05:53;59.63;;;25.75;;
56173;SDS011;42058;52.308;20.924;2022-11-20T10:08:23;60.95;;;26.02;;
56173;SDS011;42058;52.308;20.924;2022-11-20T10:11:04;62.58;;;26.70;;
56173;SDS011;42058;52.308;20.924;2022-11-20T10:22:34;61.63;;;27.17;;
56173;SDS011;42058;52.308;20.924;2022-11-20T10:25:20;65.83;;;27.82;;
56173;SDS011;42058;52.308;20.924;2022-11-20T10:30:43;61.05;;;24.72;;
56173;SDS011;42058;52.308;20.924;2022-11-20T10:33:17;70.28;;;25.32;;
56173;SDS011;42058;52.308;20.924;2022-11-20T10:36:08;58.35;;;24.98;;
56173;SDS011;42058;52.308;20.924;2022-11-20T10:38:43;64.75;;;25.50;;
56173;SDS011;42058;52.308;20.924;2022-11-20T10:41:20;57.10;;;26.05;;
56173;SDS011;42058;52.308;20.924;2022-11-20T10:43:53;52.60;;;24.55;;
56173;SDS011;42058;52.308;20.924;2022-11-20T10:46:34;61.42;;;25.88;;
56173;SDS011;42058;52.308;20.924;2022-11-20T10:49:11;57.48;;;25.88;;
56173;SDS011;42058;52.308;20.924;2022-11-20T11:00:25;53.98;;;24.98;;
56173;SDS011;42058;52.308;20.924;2022-11-20T11:02:52;54.63;;;23.73;;
56173;SDS011;42058;52.308;20.924;2022-11-20T11:05:32;65.62;;;25.52;;
56173;SDS011;42058;52.308;20.924;2022-11-20T11:08:11;56.28;;;24.90;;
56173;SDS011;42058;52.308;20.924;2022-11-20T11:13:26;48.00;;;21.97;;
56173;SDS011;42058;52.308;20.924;2022-11-20T11:15:57;50.25;;;21.45;;
56173;SDS011;42058;52.308;20.924;2022-11-20T11:18:28;51.18;;;22.65;;
56173;SDS011;42058;52.308;20.924;2022-11-20T11:20:59;49.88;;;23.35;;
56173;SDS011;42058;52.308;20.924;2022-11-20T11:26:05;49.63;;;20.92;;
56173;SDS011;42058;52.308;20.924;2022-11-20T11:28:34;48.15;;;21.00;;
56173;SDS011;42058;52.308;20.924;2022-11-20T11:31:00;54.30;;;22.13;;
56173;SDS011;42058;52.308;20.924;2022-11-20T11:33:30;44.42;;;20.77;;
56173;SDS011;42058;52.308;20.924;2022-11-20T11:36:02;47.00;;;21.82;;
56173;SDS011;42058;52.308;20.924;2022-11-20T11:38:34;49.42;;;22.50;;
56173;SDS011;42058;52.308;20.924;2022-11-20T11:41:06;46.40;;;20.85;;
56173;SDS011;42058;52.308;20.924;2022-11-20T11:43:36;53.60;;;24.43;;
56173;SDS011;42058;52.308;20.924;2022-11-20T11:48:54;47.25;;;22.50;;
56173;SDS011;42058;52.308;20.924;2022-11-20T11:51:26;49.85;;;22.80;;
56173;SDS011;42058;52.308;20.924;2022-11-20T11:54:13;45.20;;;21.30;;
56173;SDS011;42058;52.308;20.924;2022-11-20T11:56:43;49.85;;;22.62;;
56173;SDS011;42058;52.308;20.924;2022-11-20T11:59:12;45.03;;;18.75;;
56173;SDS011;42058;52.308;20.924;2022-11-20T12:01:43;48.05;;;20.15;;
56173;SDS011;42058;52.308;20.924;2022-11-20T12:04:35;46.50;;;21.68;;
56173;SDS011;42058;52.308;20.924;2022-11-20T12:07:11;41.68;;;20.02;;
56173;SDS011;42058;52.308;20.924;2022-11-20T12:09:49;47.20;;;21.02;;
56173;SDS011;42058;52.308;20.924;2022-11-20T12:12:20;42.98;;;19.37;;
56173;SDS011;42058;52.308;20.924;2022-11-20T12:14:50;42.88;;;19.37;;
56173;SDS011;42058;52.308;20.924;2022-11-20T12:17:20;45.35;;;20.08;;
56173;SDS011;42058;52.308;20.924;2022-11-20T12:19:46;48.17;;;20.17;;
56173;SDS011;42058;52.308;20.924;2022-11-20T12:25:47;48.45;;;20.25;;
56173;SDS011;42058;52.308;20.924;2022-11-20T12:33:47;42.00;;;19.37;;
56173;SDS011;42058;52.308;20.924;2022-11-20T12:42:05;48.68;;;19.52;;
56173;SDS011;42058;52.308;20.924;2022-11-20T12:45:12;47.13;;;18.62;;
56173;SDS011;42058;52.308;20.924;2022-11-20T12:51:05;41.45;;;18.70;;
56173;SDS011;42058;52.308;20.924;2022-11-20T12:53:50;46.53;;;20.12;;
56173;SDS011;42058;52.308;20.924;2022-11-20T12:56:50;47.05;;;20.48;;
56173;SDS011;42058;52.308;20.924;2022-11-20T13:02:32;45.45;;;20.68;;
56173;SDS011;42058;52.308;20.924;2022-11-20T13:05:15;46.13;;;20.50;;
56173;SDS011;42058;52.308;20.924;2022-11-20T13:07:52;43.60;;;18.57;;
56173;SDS011;42058;52.308;20.924;2022-11-20T13:16:17;43.35;;;19.27;;
56173;SDS011;42058;52.308;20.924;2022-11-20T13:18:40;45.92;;;19.52;;
56173;SDS011;42058;52.308;20.924;2022-11-20T13:21:14;45.28;;;19.85;;
56173;SDS011;42058;52.308;20.924;2022-11-20T13:23:50;44.27;;;18.80;;
56173;SDS011;42058;52.308;20.924;2022-11-20T13:26:17;40.85;;;19.15;;
56173;SDS011;42058;52.308;20.924;2022-11-20T13:31:32;47.45;;;20.72;;
56173;SDS011;42058;52.308;20.924;2022-11-20T13:34:02;48.42;;;20.40;;
56173;SDS011;42058;52.308;20.924;2022-11-20T13:36:31;49.13;;;21.12;;
56173;SDS011;42058;52.308;20.924;2022-11-20T13:38:58;41.98;;;21.10;;
56173;SDS011;42058;52.308;20.924;2022-11-20T13:41:26;44.67;;;21.37;;
56173;SDS011;42058;52.308;20.924;2022-11-20T13:46:43;45.75;;;21.75;;
56173;SDS011;42058;52.308;20.924;2022-11-20T13:49:17;48.73;;;21.37;;
56173;SDS011;42058;52.308;20.924;2022-11-20T13:57:54;52.93;;;21.82;;
56173;SDS011;42058;52.308;20.924;2022-11-20T14:00:31;49.50;;;21.17;;
56173;SDS011;42058;52.308;20.924;2022-11-20T14:03:07;41.48;;;20.12;;
56173;SDS011;42058;52.308;20.924;2022-11-20T14:05:38;56.95;;;23.70;;
56173;SDS011;42058;52.308;20.924;2022-11-20T14:08:26;56.53;;;24.47;;
56173;SDS011;42058;52.308;20.924;2022-11-20T14:11:11;62.10;;;27.07;;
56173;SDS011;42058;52.308;20.924;2022-11-20T14:13:59;59.53;;;26.15;;
56173;SDS011;42058;52.308;20.924;2022-11-20T14:16:43;55.92;;;26.30;;
56173;SDS011;42058;52.308;20.924;2022-11-20T14:21:54;55.43;;;24.85;;
56173;SDS011;42058;52.308;20.924;2022-11-20T14:24:36;55.48;;;25.97;;
56173;SDS011;42058;52.308;20.924;2022-11-20T14:27:03;62.38;;;26.60;;
56173;SDS011;42058;52.308;20.924;2022-11-20T14:29:30;53.30;;;25.00;;
56173;SDS011;42058;52.308;20.924;2022-11-20T14:32:02;56.45;;;24.20;;
56173;SDS011;42058;52.308;20.924;2022-11-20T14:34:30;56.80;;;25.10;;
56173;SDS011;42058;52.308;20.924;2022-11-20T14:37:00;52.62;;;24.32;;
56173;SDS011;42058;52.308;20.924;2022-11-20T14:39:34;54.63;;;24.43;;
56173;SDS011;42058;52.308;20.924;2022-11-20T14:42:10;57.93;;;25.97;;
56173;SDS011;42058;52.308;20.924;2022-11-20T14:44:42;57.17;;;25.30;;
56173;SDS011;42058;52.308;20.924;2022-11-20T14:47:10;59.38;;;25.32;;
56173;SDS011;42058;52.308;20.924;2022-11-20T14:49:50;53.15;;;23.80;;
56173;SDS011;42058;52.308;20.924;2022-11-20T14:52:19;52.67;;;23.85;;
56173;SDS011;42058;52.308;20.924;2022-11-20T14:57:33;59.58;;;25.27;;
56173;SDS011;42058;52.308;20.924;2022-11-20T15:02:42;57.62;;;25.40;;
56173;SDS011;42058;52.308;20.924;2022-11-20T15:05:11;58.38;;;24.43;;
56173;SDS011;42058;52.308;20.924;2022-11-20T15:07:40;55.43;;;25.17;;
56173;SDS011;42058;52.308;20.924;2022-11-20T15:12:59;55.23;;;24.85;;
56173;SDS011;42058;52.308;20.924;2022-11-20T15:15:33;56.23;;;25.50;;
56173;SDS011;42058;52.308;20.924;2022-11-20T15:18:28;51.55;;;23.62;;
56173;SDS011;42058;52.308;20.924;2022-11-20T15:21:00;53.73;;;24.47;;
56173;SDS011;42058;52.308;20.924;2022-11-20T15:23:28;52.70;;;23.40;;
56173;SDS011;42058;52.308;20.924;2022-11-20T15:25:55;58.02;;;24.72;;
56173;SDS011;42058;52.308;20.924;2022-11-20T15:28:23;55.35;;;24.12;;
56173;SDS011;42058;52.308;20.924;2022-11-20T15:31:11;55.17;;;24.45;;
56173;SDS011;42058;52.308;20.924;2022-11-20T15:33:40;53.73;;;23.75;;
56173;SDS011;42058;52.308;20.924;2022-11-20T15:36:06;55.12;;;23.62;;
56173;SDS011;42058;52.308;20.924;2022-11-20T15:38:32;56.05;;;23.73;;
56173;SDS011;42058;52.308;20.924;2022-11-20T15:40:59;49.75;;;23.38;;
56173;SDS011;42058;52.308;20.924;2022-11-20T15:43:25;52.43;;;23.00;;
56173;SDS011;42058;52.308;20.924;2022-11-20T15:45:55;49.60;;;22.17;;
56173;SDS011;42058;52.308;20.924;2022-11-20T15:48:27;54.67;;;23.27;;
56173;SDS011;42058;52.308;20.924;2022-11-20T15:51:06;49.90;;;23.22;;
56173;SDS011;42058;52.308;20.924;2022-11-20T15:53:41;51.45;;;23.95;;